This is the latest recevied weather packets stored in our database for station/object EA3GKP-7. If no packets are shown the sender has not sent any weather packets the latest 10 day(s).
| Time | Temp. | Humidity | Pressure | Rain* | Wind** | Luminosity | Snow |
|---|---|---|---|---|---|---|---|
| 1788087630 | 32.78° C | 58% | 1020.8 hPa | - | - | - | - |
| 1788087329 | 32.78° C | 58% | 1020.8 hPa | - | - | - | - |
| 1788087030 | 32.22° C | 69% | 1020.7 hPa | - | - | - | - |
| 1788086730 | 33.33° C | 57% | 1020.8 hPa | - | - | - | - |
| 1788086429 | 33.33° C | 60% | 1020.8 hPa | - | - | - | - |
| 1788086130 | 32.78° C | 59% | 1020.9 hPa | - | - | - | - |
| 1788085830 | 32.78° C | 59% | 1020.9 hPa | - | - | - | - |
| 1788085530 | 32.22° C | 58% | 1020.9 hPa | - | - | - | - |
| 1788085229 | 33.33° C | 56% | 1020.9 hPa | - | - | - | - |
| 1788084929 | 34.44° C | 47% | 1021 hPa | - | - | - | - |
| 1788084629 | 33.33° C | 46% | 1021.2 hPa | - | - | - | - |
| 1788084330 | 33.89° C | 44% | 1021.2 hPa | - | - | - | - |
| 1788084029 | 33.33° C | 43% | 1021.2 hPa | - | - | - | - |
| 1788083730 | 33.33° C | 42% | 1021.4 hPa | - | - | - | - |
| 1788083430 | 33.89° C | 42% | 1021.4 hPa | - | - | - | - |
| 1788083130 | 32.78° C | 44% | 1021.5 hPa | - | - | - | - |
| 1788082830 | 32.22° C | 45% | 1021.6 hPa | - | - | - | - |
| 1788082530 | 32.22° C | 47% | 1021.4 hPa | - | - | - | - |
| 1788082229 | 31.67° C | 46% | 1021.5 hPa | - | - | - | - |
| 1788081930 | 32.22° C | 48% | 1021.4 hPa | - | - | - | - |
| 1788081630 | 32.22° C | 49% | 1021.5 hPa | - | - | - | - |
| 1788081329 | 31.67° C | 49% | 1021.5 hPa | - | - | - | - |
| 1788081030 | 32.22° C | 49% | 1021.5 hPa | - | - | - | - |
| 1788080730 | 31.67° C | 52% | 1021.5 hPa | - | - | - | - |
| 1788080429 | 31.11° C | 53% | 1021.6 hPa | - | - | - | - |
* Rain since midnight (hover to see other rain measurements)
** Current wind speed in m/s (hover to see current wind gust speed)